Alton, TX

5:33 AM CST on January 30, 2015 (GMT -0600)
McAllen Miller International | Change Station
CLOSE
Current Station
Airport
Location: McAllen,
Elevation: 105 ft
Nearby Weather Stations

Elev 105 ft 26.18 °N, 98.24 °W | Updated 40 minutes ago

Overcast
Overcast
62 °F
Feels Like 62 °F
N
6
Wind Variable Wind from NNE

Today
High -- | Low -- °F
--% Chance of Precip.
Yesterday
High -- | Low -- °F
Precip. -- in
7:18 AM 6:14 PM
Waxing Gibbous, 82% visible
Pressure 30.27 in
Visibility 5.0 miles
Clouds Overcast 300 ft
Dew Point 60 °F
Humidity 93%
Rainfall 0.00 in
Snow Depth Not available.
UV 0 out of 12
Pollen 8.10 out of 12
Air Quality Not available.
Flu Activity Not available.
METAR KMFE 301053Z AUTO 02005KT 5SM BR OVC003 17/16 A3027 RMK AO2 SLP250 T01670156

More Conditions Fewer Conditions

Pressure 30.27 in
Visibility 5.0 miles
Clouds Overcast 300 ft
Dew Point 60 °F
Humidity 93%
Rainfall 0.00 in
Snow Depth Not available.
UV 0 out of 12
Pollen 8.10 out of 12
Air Quality Not available.
Flu Activity Not available.
METAR KMFE 301053Z AUTO 02005KT 5SM BR OVC003 17/16 A3027 RMK AO2 SLP250 T01670156

More Conditions Fewer Conditions

Nowcast | as of 4:02 am CST on January 30, 2015

Through 7 am...areas of fog...some locally dense...will affect portions of the Rio Grande Valley...ranchlands and the brush country. Visibility will be reduced to 1 to 3 miles...with some locations dropping below 1 mile at times. Motorists are urged to slow down and use low beam headlights when encountering areas of reduced visibility.

×

10-Day Weather Forecast

Almanac

Astronomy

Jan. 30, 2015 Rise Set
Actual Time
Civil Twilight
Nautical Twilight
Astronomical Twilight
Moon
Length of Visible Light
Length of Day
Tomorrow will be .
, % of the Moon is Illuminated

Today's Extremes

State Highs State Lows

Community

WunderPhotos

Upload Photos

1,791,737 photos uploaded!

WunderBlogs® & News

Nearby

Air Quality

  Air Quality AQ Index Pollutant
Not available.

Snow Depth

Station Depth Elevation

Earthquake Activity

City Distance Mag. Time & Date
Minimum magnitude displayed is 2.5.

Coastal Water Temperatures

Place Temperature

Nearby Weather Stations